sensor_id;sensor_type;location;lat;lon;timestamp;P1;durP1;ratioP1;P2;durP2;ratioP2
5827;SDS011;42583;50.240;8.444;2024-02-21T00:05:28;23.45;;;5.78;;
5827;SDS011;42583;50.240;8.444;2024-02-21T00:20:28;18.40;;;5.95;;
5827;SDS011;42583;50.240;8.444;2024-02-21T00:35:30;20.42;;;5.90;;
5827;SDS011;42583;50.240;8.444;2024-02-21T00:50:30;28.00;;;6.93;;
5827;SDS011;42583;50.240;8.444;2024-02-21T01:05:31;21.88;;;7.10;;
5827;SDS011;42583;50.240;8.444;2024-02-21T01:20:32;17.83;;;5.80;;
5827;SDS011;42583;50.240;8.444;2024-02-21T01:35:32;19.50;;;6.18;;
5827;SDS011;42583;50.240;8.444;2024-02-21T01:50:34;21.00;;;5.22;;
5827;SDS011;42583;50.240;8.444;2024-02-21T02:05:36;21.30;;;6.40;;
5827;SDS011;42583;50.240;8.444;2024-02-21T02:20:37;17.08;;;5.60;;
5827;SDS011;42583;50.240;8.444;2024-02-21T02:35:38;21.15;;;5.47;;
5827;SDS011;42583;50.240;8.444;2024-02-21T02:50:38;21.35;;;5.85;;
5827;SDS011;42583;50.240;8.444;2024-02-21T03:05:39;21.85;;;5.80;;
5827;SDS011;42583;50.240;8.444;2024-02-21T03:20:39;18.98;;;6.25;;
5827;SDS011;42583;50.240;8.444;2024-02-21T03:35:40;19.45;;;6.18;;
5827;SDS011;42583;50.240;8.444;2024-02-21T03:50:40;21.90;;;6.57;;
5827;SDS011;42583;50.240;8.444;2024-02-21T04:05:41;26.40;;;6.57;;
5827;SDS011;42583;50.240;8.444;2024-02-21T04:20:42;23.27;;;7.90;;
5827;SDS011;42583;50.240;8.444;2024-02-21T04:35:42;21.95;;;7.00;;
5827;SDS011;42583;50.240;8.444;2024-02-21T04:50:43;30.70;;;8.15;;
5827;SDS011;42583;50.240;8.444;2024-02-21T05:05:43;31.65;;;7.60;;
5827;SDS011;42583;50.240;8.444;2024-02-21T05:20:44;24.63;;;7.45;;
5827;SDS011;42583;50.240;8.444;2024-02-21T05:35:44;26.52;;;6.90;;
5827;SDS011;42583;50.240;8.444;2024-02-21T05:50:46;19.02;;;6.20;;
5827;SDS011;42583;50.240;8.444;2024-02-21T06:05:46;15.70;;;6.20;;
5827;SDS011;42583;50.240;8.444;2024-02-21T06:20:47;17.73;;;6.60;;
5827;SDS011;42583;50.240;8.444;2024-02-21T06:35:47;25.98;;;6.60;;
5827;SDS011;42583;50.240;8.444;2024-02-21T06:50:48;513.70;;;21.27;;
5827;SDS011;42583;50.240;8.444;2024-02-21T07:05:48;23.05;;;7.18;;
5827;SDS011;42583;50.240;8.444;2024-02-21T07:20:49;19.67;;;7.80;;
5827;SDS011;42583;50.240;8.444;2024-02-21T07:35:49;24.90;;;7.70;;
5827;SDS011;42583;50.240;8.444;2024-02-21T07:50:50;23.45;;;7.78;;
5827;SDS011;42583;50.240;8.444;2024-02-21T08:05:51;17.75;;;6.35;;
5827;SDS011;42583;50.240;8.444;2024-02-21T08:20:54;19.48;;;6.22;;
5827;SDS011;42583;50.240;8.444;2024-02-21T08:35:58;19.80;;;6.43;;
5827;SDS011;42583;50.240;8.444;2024-02-21T08:50:58;17.17;;;6.40;;
5827;SDS011;42583;50.240;8.444;2024-02-21T09:05:59;19.48;;;6.05;;
5827;SDS011;42583;50.240;8.444;2024-02-21T09:21:00;17.20;;;6.90;;
5827;SDS011;42583;50.240;8.444;2024-02-21T09:36:00;22.38;;;6.75;;
5827;SDS011;42583;50.240;8.444;2024-02-21T09:51:01;21.90;;;7.63;;
5827;SDS011;42583;50.240;8.444;2024-02-21T10:06:03;24.60;;;8.68;;
5827;SDS011;42583;50.240;8.444;2024-02-21T10:21:04;20.33;;;8.45;;
5827;SDS011;42583;50.240;8.444;2024-02-21T10:36:10;20.75;;;7.60;;
5827;SDS011;42583;50.240;8.444;2024-02-21T10:51:14;15.33;;;7.07;;
5827;SDS011;42583;50.240;8.444;2024-02-21T11:06:16;17.27;;;6.90;;
5827;SDS011;42583;50.240;8.444;2024-02-21T11:21:18;14.55;;;5.82;;
5827;SDS011;42583;50.240;8.444;2024-02-21T11:36:25;13.73;;;4.57;;
5827;SDS011;42583;50.240;8.444;2024-02-21T11:51:26;11.85;;;4.15;;
5827;SDS011;42583;50.240;8.444;2024-02-21T12:06:27;10.60;;;3.97;;
5827;SDS011;42583;50.240;8.444;2024-02-21T12:21:29;14.70;;;4.40;;
5827;SDS011;42583;50.240;8.444;2024-02-21T12:36:32;13.23;;;4.37;;
5827;SDS011;42583;50.240;8.444;2024-02-21T12:51:33;14.60;;;4.05;;
5827;SDS011;42583;50.240;8.444;2024-02-21T13:06:35;17.60;;;4.13;;
5827;SDS011;42583;50.240;8.444;2024-02-21T13:21:37;11.45;;;3.75;;
5827;SDS011;42583;50.240;8.444;2024-02-21T13:36:37;12.25;;;4.13;;
5827;SDS011;42583;50.240;8.444;2024-02-21T13:51:38;12.35;;;3.95;;
5827;SDS011;42583;50.240;8.444;2024-02-21T14:06:40;15.10;;;4.07;;
5827;SDS011;42583;50.240;8.444;2024-02-21T14:21:44;13.68;;;4.10;;
5827;SDS011;42583;50.240;8.444;2024-02-21T14:36:45;12.95;;;3.65;;
5827;SDS011;42583;50.240;8.444;2024-02-21T14:51:45;11.45;;;3.47;;
5827;SDS011;42583;50.240;8.444;2024-02-21T15:06:46;10.65;;;3.03;;
5827;SDS011;42583;50.240;8.444;2024-02-21T15:21:48;12.05;;;2.80;;
5827;SDS011;42583;50.240;8.444;2024-02-21T15:36:49;13.73;;;2.97;;
5827;SDS011;42583;50.240;8.444;2024-02-21T15:51:51;14.18;;;2.75;;
5827;SDS011;42583;50.240;8.444;2024-02-21T16:06:51;10.55;;;2.63;;
5827;SDS011;42583;50.240;8.444;2024-02-21T16:21:54;11.02;;;3.20;;
5827;SDS011;42583;50.240;8.444;2024-02-21T16:36:55;8.27;;;2.90;;
5827;SDS011;42583;50.240;8.444;2024-02-21T16:51:57;14.45;;;3.17;;
5827;SDS011;42583;50.240;8.444;2024-02-21T17:06:58;9.23;;;3.15;;
5827;SDS011;42583;50.240;8.444;2024-02-21T17:21:58;13.05;;;3.80;;
5827;SDS011;42583;50.240;8.444;2024-02-21T17:36:59;8.68;;;3.20;;
5827;SDS011;42583;50.240;8.444;2024-02-21T17:52:02;7.93;;;2.50;;
5827;SDS011;42583;50.240;8.444;2024-02-21T18:07:15;8.93;;;2.45;;
5827;SDS011;42583;50.240;8.444;2024-02-21T18:22:42;8.82;;;2.60;;
5827;SDS011;42583;50.240;8.444;2024-02-21T18:37:45;9.73;;;3.00;;
5827;SDS011;42583;50.240;8.444;2024-02-21T18:52:48;10.73;;;3.20;;
5827;SDS011;42583;50.240;8.444;2024-02-21T19:07:53;11.07;;;3.00;;
5827;SDS011;42583;50.240;8.444;2024-02-21T19:22:56;9.23;;;2.90;;
5827;SDS011;42583;50.240;8.444;2024-02-21T19:38:04;8.77;;;3.03;;
5827;SDS011;42583;50.240;8.444;2024-02-21T19:53:09;10.75;;;3.13;;
5827;SDS011;42583;50.240;8.444;2024-02-21T20:08:10;6.38;;;3.22;;
5827;SDS011;42583;50.240;8.444;2024-02-21T20:23:11;10.43;;;3.47;;
5827;SDS011;42583;50.240;8.444;2024-02-21T20:38:14;11.45;;;3.05;;
5827;SDS011;42583;50.240;8.444;2024-02-21T20:53:16;6.88;;;3.60;;
5827;SDS011;42583;50.240;8.444;2024-02-21T21:08:16;15.85;;;7.15;;
5827;SDS011;42583;50.240;8.444;2024-02-21T21:23:17;13.43;;;5.25;;
5827;SDS011;42583;50.240;8.444;2024-02-21T21:38:18;14.57;;;5.78;;
5827;SDS011;42583;50.240;8.444;2024-02-21T21:53:20;9.98;;;5.53;;
5827;SDS011;42583;50.240;8.444;2024-02-21T22:08:21;533.03;;;23.90;;
5827;SDS011;42583;50.240;8.444;2024-02-21T22:23:23;791.45;;;22.45;;
5827;SDS011;42583;50.240;8.444;2024-02-21T22:38:24;632.20;;;16.95;;
5827;SDS011;42583;50.240;8.444;2024-02-21T22:53:24;686.08;;;18.98;;
5827;SDS011;42583;50.240;8.444;2024-02-21T23:08:25;515.42;;;11.55;;
5827;SDS011;42583;50.240;8.444;2024-02-21T23:23:26;600.10;;;13.75;;
5827;SDS011;42583;50.240;8.444;2024-02-21T23:38:27;554.30;;;12.77;;
5827;SDS011;42583;50.240;8.444;2024-02-21T23:53:27;563.17;;;13.57;;
